createdAt,value
2018-08-31T00:02:03.971Z,7.87
2018-08-31T00:04:44.628Z,7.90
2018-08-31T00:06:59.313Z,8.70
2018-08-31T00:09:13.886Z,7.90
2018-08-31T00:13:36.731Z,6.67
2018-08-31T00:15:40.692Z,7.73
2018-08-31T00:17:44.951Z,7.80
2018-08-31T00:19:48.800Z,8.17
2018-08-31T00:21:53.451Z,8.43
2018-08-31T00:24:08.375Z,8.03
2018-08-31T00:26:23.466Z,7.93
2018-08-31T00:28:38.601Z,7.00
2018-08-31T00:31:53.930Z,8.57
2018-08-31T00:35:08.318Z,7.10
2018-08-31T00:39:27.749Z,7.87
2018-08-31T00:41:42.674Z,8.00
2018-08-31T00:43:57.484Z,7.33
2018-08-31T00:46:01.275Z,7.30
2018-08-31T00:48:05.542Z,8.13
2018-08-31T00:50:09.447Z,8.10
2018-08-31T00:52:13.300Z,7.00
2018-08-31T00:54:17.166Z,7.87
2018-08-31T00:56:20.917Z,7.80
2018-08-31T00:58:24.869Z,7.27
2018-08-31T01:00:28.768Z,7.63
2018-08-31T01:02:32.535Z,7.60
2018-08-31T01:04:36.433Z,7.27
2018-08-31T01:06:40.253Z,6.97
2018-08-31T01:08:44.122Z,6.93
2018-08-31T01:10:47.936Z,6.83
2018-08-31T01:12:52.606Z,7.27
2018-08-31T01:14:56.477Z,7.40
2018-08-31T01:17:00.278Z,7.73
2018-08-31T01:19:04.131Z,8.03
2018-08-31T01:21:07.947Z,7.47
2018-08-31T01:23:11.738Z,7.30
2018-08-31T01:25:15.536Z,7.17
2018-08-31T01:27:19.300Z,7.03
2018-08-31T01:29:23.706Z,6.70
2018-08-31T01:31:27.547Z,6.70
2018-08-31T01:33:31.299Z,7.30
2018-08-31T01:35:35.136Z,7.37
2018-08-31T01:37:38.893Z,7.33
2018-08-31T01:39:42.726Z,6.97
2018-08-31T01:41:46.566Z,7.13
2018-08-31T01:43:50.401Z,6.63
2018-08-31T01:45:54.233Z,7.10
2018-08-31T01:47:58.060Z,7.60
2018-08-31T01:50:01.933Z,6.70
2018-08-31T01:52:05.841Z,7.30
2018-08-31T01:54:09.646Z,6.30
2018-08-31T01:56:14.388Z,6.77
2018-08-31T01:58:18.182Z,8.00
2018-08-31T02:00:22.037Z,8.17
2018-08-31T02:02:25.802Z,7.53
2018-08-31T02:04:29.594Z,7.70
2018-08-31T02:06:34.387Z,7.63
2018-08-31T02:08:42.396Z,7.33
2018-08-31T02:10:46.195Z,6.70
2018-08-31T02:12:50.011Z,8.03
2018-08-31T02:14:53.780Z,7.10
2018-08-31T02:16:57.637Z,6.47
2018-08-31T02:19:01.425Z,6.30
2018-08-31T02:21:05.319Z,5.93
2018-08-31T02:23:09.111Z,6.07
2018-08-31T02:25:12.847Z,6.47
2018-08-31T02:27:16.637Z,6.30
2018-08-31T02:29:20.441Z,6.83
2018-08-31T02:31:24.252Z,6.90
2018-08-31T02:33:28.113Z,5.87
2018-08-31T02:35:31.904Z,6.70
2018-08-31T02:37:35.783Z,5.67
2018-08-31T02:39:39.567Z,6.40
2018-08-31T02:41:43.365Z,6.30
2018-08-31T02:43:48.491Z,6.50
2018-08-31T02:45:52.261Z,7.50
2018-08-31T02:47:56.105Z,5.90
2018-08-31T02:49:59.884Z,6.40
2018-08-31T02:52:03.811Z,6.60
2018-08-31T02:54:07.556Z,6.23
2018-08-31T02:56:12.481Z,7.10
2018-08-31T02:58:16.442Z,6.70
2018-08-31T03:00:20.201Z,6.00
2018-08-31T03:02:24.026Z,6.10
2018-08-31T03:04:27.924Z,6.27
2018-08-31T03:06:31.756Z,6.70
2018-08-31T03:08:35.623Z,6.20
2018-08-31T03:10:39.434Z,6.47
2018-08-31T03:12:43.297Z,6.30
2018-08-31T03:14:47.251Z,6.90
2018-08-31T03:16:51.112Z,6.40
2018-08-31T03:18:55.027Z,6.53
2018-08-31T03:20:58.907Z,6.53
2018-08-31T03:23:02.752Z,6.33
2018-08-31T03:25:06.714Z,6.60
2018-08-31T03:27:10.745Z,6.60
2018-08-31T03:29:14.626Z,5.60
2018-08-31T03:31:18.470Z,5.97
2018-08-31T03:33:22.322Z,6.00
2018-08-31T03:35:26.151Z,6.40
2018-08-31T03:37:29.956Z,6.27
2018-08-31T03:39:33.768Z,6.00
2018-08-31T03:41:37.765Z,6.20
2018-08-31T03:43:41.539Z,6.50
2018-08-31T03:45:45.419Z,8.00
2018-08-31T03:47:51.863Z,6.50
2018-08-31T03:49:55.784Z,6.37
2018-08-31T03:51:59.690Z,6.90
2018-08-31T03:54:03.760Z,6.80
2018-08-31T03:56:07.882Z,6.30
2018-08-31T03:58:11.685Z,6.77
2018-08-31T04:00:15.517Z,6.20
2018-08-31T04:02:19.336Z,7.43
2018-08-31T04:04:23.331Z,6.20
2018-08-31T04:06:27.227Z,6.13
2018-08-31T04:08:31.036Z,5.97
2018-08-31T04:10:34.855Z,6.40
2018-08-31T04:12:38.698Z,6.90
2018-08-31T04:14:42.498Z,5.93
2018-08-31T04:16:59.384Z,5.50
2018-08-31T04:19:09.910Z,5.70
2018-08-31T04:21:13.855Z,6.00
2018-08-31T04:23:17.842Z,5.27
2018-08-31T04:25:22.084Z,5.20
2018-08-31T04:27:26.267Z,5.87
2018-08-31T04:29:30.050Z,6.00
2018-08-31T04:31:34.129Z,5.87
2018-08-31T04:33:37.895Z,5.80
2018-08-31T04:35:41.737Z,5.50
2018-08-31T04:37:45.698Z,5.63
2018-08-31T04:39:49.625Z,6.10
2018-08-31T04:41:54.070Z,5.00
2018-08-31T04:43:58.078Z,5.73
2018-08-31T04:46:01.977Z,5.40
2018-08-31T04:48:06.295Z,5.87
2018-08-31T04:50:23.697Z,4.60
2018-08-31T04:52:29.182Z,5.57
2018-08-31T04:54:36.876Z,4.70
2018-08-31T04:56:40.693Z,5.37
2018-08-31T04:58:44.779Z,5.10
2018-08-31T05:00:48.588Z,4.63
2018-08-31T05:02:52.756Z,4.90
2018-08-31T05:04:56.742Z,5.50
2018-08-31T05:07:00.905Z,4.53
2018-08-31T05:09:06.809Z,4.70
2018-08-31T05:11:10.854Z,4.37
2018-08-31T05:13:14.706Z,4.07
2018-08-31T05:15:18.678Z,4.70
2018-08-31T05:17:22.457Z,4.30
2018-08-31T05:19:26.415Z,4.17
2018-08-31T05:21:30.291Z,4.43
2018-08-31T05:23:34.304Z,4.70
2018-08-31T05:25:38.078Z,4.63
2018-08-31T05:27:42.127Z,4.87
2018-08-31T05:29:45.960Z,4.73
2018-08-31T05:31:49.845Z,4.70
2018-08-31T05:33:53.962Z,4.30
2018-08-31T05:35:57.842Z,4.87
2018-08-31T05:38:01.732Z,4.27
2018-08-31T05:40:05.668Z,4.80
2018-08-31T05:42:09.548Z,4.67
2018-08-31T05:44:13.438Z,4.63
2018-08-31T05:46:17.270Z,4.27
2018-08-31T05:48:21.240Z,4.57
2018-08-31T05:50:25.067Z,5.17
2018-08-31T05:52:28.995Z,4.93
2018-08-31T05:54:33.010Z,4.10
2018-08-31T05:56:37.973Z,4.57
2018-08-31T05:58:41.896Z,4.77
2018-08-31T06:00:45.839Z,4.70
2018-08-31T06:02:49.778Z,4.20
2018-08-31T06:04:53.797Z,4.27
2018-08-31T06:06:57.720Z,4.50
2018-08-31T06:09:01.692Z,4.83
2018-08-31T06:11:05.576Z,4.73
2018-08-31T06:13:09.772Z,4.70
2018-08-31T06:15:13.756Z,4.60
2018-08-31T06:17:17.722Z,4.57
2018-08-31T06:19:21.567Z,4.30
2018-08-31T06:21:25.452Z,4.67
2018-08-31T06:23:29.307Z,4.73
2018-08-31T06:25:33.170Z,4.00
2018-08-31T06:27:37.237Z,3.87
2018-08-31T06:29:41.280Z,5.00
2018-08-31T06:31:45.376Z,4.57
2018-08-31T06:33:49.435Z,4.50
2018-08-31T06:35:54.347Z,4.80
2018-08-31T06:37:58.209Z,3.97
2018-08-31T06:40:02.179Z,4.40
2018-08-31T06:42:06.022Z,4.40
2018-08-31T06:44:10.013Z,4.53
2018-08-31T06:46:13.906Z,4.40
2018-08-31T06:48:17.890Z,4.60
2018-08-31T06:50:21.726Z,4.80
2018-08-31T06:52:25.620Z,4.70
2018-08-31T06:54:29.479Z,4.40
2018-08-31T06:56:33.304Z,4.80
2018-08-31T06:58:37.160Z,4.27
2018-08-31T07:00:41.131Z,5.00
2018-08-31T07:02:44.958Z,4.03
2018-08-31T07:04:48.964Z,4.20
2018-08-31T07:06:52.795Z,4.27
2018-08-31T07:08:56.748Z,4.60
2018-08-31T07:11:00.549Z,4.50
2018-08-31T07:13:04.398Z,4.57
2018-08-31T07:15:08.484Z,4.70
2018-08-31T07:17:12.369Z,5.10
2018-08-31T07:19:16.229Z,4.53
2018-08-31T07:21:20.077Z,3.33
2018-08-31T07:23:23.949Z,4.77
2018-08-31T07:25:27.743Z,3.70
2018-08-31T07:27:31.665Z,4.23
2018-08-31T07:29:35.484Z,3.60
2018-08-31T07:31:39.322Z,4.13
2018-08-31T07:33:43.191Z,4.40
2018-08-31T07:35:47.090Z,4.80
2018-08-31T07:37:50.892Z,4.10
2018-08-31T07:39:54.856Z,4.83
2018-08-31T07:41:58.645Z,4.20
2018-08-31T07:44:02.555Z,4.00
2018-08-31T07:46:06.373Z,4.57
2018-08-31T07:48:10.168Z,4.10
2018-08-31T07:50:14.040Z,3.73
2018-08-31T07:52:17.947Z,4.17
2018-08-31T07:54:21.847Z,4.03
2018-08-31T07:56:25.679Z,4.23
2018-08-31T07:58:29.690Z,3.67
2018-08-31T08:00:33.548Z,3.90
2018-08-31T08:02:37.435Z,4.30
2018-08-31T08:04:41.347Z,4.37
2018-08-31T08:06:45.246Z,3.50
2018-08-31T08:08:49.099Z,3.70
2018-08-31T08:10:53.783Z,3.90
2018-08-31T08:12:57.766Z,3.73
2018-08-31T08:15:01.723Z,3.37
2018-08-31T08:17:05.587Z,3.30
2018-08-31T08:19:09.484Z,3.53
2018-08-31T08:21:13.350Z,3.70
2018-08-31T08:23:17.162Z,3.13
2018-08-31T08:25:21.175Z,3.27
2018-08-31T08:27:25.085Z,2.97
2018-08-31T08:29:29.135Z,2.63
2018-08-31T08:31:33.005Z,3.20
2018-08-31T08:33:36.896Z,3.17
2018-08-31T08:35:40.909Z,3.97
2018-08-31T08:37:44.795Z,3.10
2018-08-31T08:39:48.613Z,3.00
2018-08-31T08:41:56.475Z,3.23
2018-08-31T08:44:00.310Z,3.17
2018-08-31T08:46:04.220Z,2.63
2018-08-31T08:48:08.318Z,4.03
2018-08-31T08:50:12.195Z,3.70
2018-08-31T08:52:16.177Z,3.40
2018-08-31T08:54:20.172Z,3.10
2018-08-31T08:56:24.102Z,3.60
2018-08-31T08:58:27.936Z,3.00
2018-08-31T09:00:31.884Z,3.00
2018-08-31T09:02:35.744Z,3.33
2018-08-31T09:04:39.693Z,3.10
2018-08-31T09:06:43.543Z,3.50
2018-08-31T09:08:48.337Z,3.23
2018-08-31T09:10:53.004Z,2.73
2018-08-31T09:12:56.856Z,3.23
2018-08-31T09:15:00.850Z,4.60
2018-08-31T09:17:04.706Z,3.67
2018-08-31T09:19:08.631Z,3.40
2018-08-31T09:21:12.520Z,4.13
2018-08-31T09:23:16.417Z,3.07
2018-08-31T09:25:20.372Z,2.90
2018-08-31T09:27:28.417Z,3.00
2018-08-31T09:29:32.340Z,3.50
2018-08-31T09:31:36.237Z,2.80
2018-08-31T09:33:40.109Z,2.80
2018-08-31T09:35:44.090Z,3.53
2018-08-31T09:37:47.914Z,3.17
2018-08-31T09:39:51.859Z,3.77
2018-08-31T09:41:55.687Z,3.20
2018-08-31T09:43:59.673Z,3.83
2018-08-31T09:46:03.937Z,3.07
2018-08-31T09:48:07.868Z,3.70
2018-08-31T09:50:11.763Z,3.70
2018-08-31T09:52:16.926Z,3.53
2018-08-31T09:54:20.752Z,3.30
2018-08-31T09:56:24.703Z,3.60
2018-08-31T09:58:28.556Z,2.90
2018-08-31T10:00:37.799Z,3.67
2018-08-31T10:02:46.702Z,4.30
2018-08-31T10:04:50.702Z,4.87
2018-08-31T10:06:54.693Z,3.70
2018-08-31T10:08:58.491Z,4.67
2018-08-31T10:11:02.401Z,4.10
2018-08-31T10:13:06.130Z,4.60
2018-08-31T10:15:10.076Z,4.13
2018-08-31T10:17:13.831Z,3.93
2018-08-31T10:19:17.805Z,3.90
2018-08-31T10:21:21.610Z,3.90
2018-08-31T10:23:25.444Z,4.10
2018-08-31T10:25:29.265Z,3.57
2018-08-31T10:27:33.122Z,4.00
2018-08-31T10:29:37.006Z,3.10
2018-08-31T10:31:40.818Z,4.30
2018-08-31T10:33:44.737Z,3.90
2018-08-31T10:35:48.515Z,3.53
2018-08-31T10:37:52.651Z,4.10
2018-08-31T10:39:56.452Z,3.47
2018-08-31T10:42:00.275Z,3.70
2018-08-31T10:44:04.089Z,3.60
2018-08-31T10:46:08.114Z,3.03
2018-08-31T10:48:11.951Z,4.10
2018-08-31T10:50:15.839Z,4.10
2018-08-31T10:52:19.734Z,3.07
2018-08-31T10:54:23.739Z,3.30
2018-08-31T10:56:27.626Z,4.13
2018-08-31T10:58:31.503Z,4.03
2018-08-31T11:00:35.374Z,3.23
2018-08-31T11:02:54.727Z,4.37
2018-08-31T11:04:58.872Z,3.33
2018-08-31T11:07:03.032Z,3.70
2018-08-31T11:09:07.449Z,3.37
2018-08-31T11:11:11.295Z,4.17
2018-08-31T11:13:15.329Z,3.97
2018-08-31T11:15:20.764Z,3.90
2018-08-31T11:17:24.586Z,3.70
2018-08-31T11:19:28.905Z,3.73
2018-08-31T11:21:52.896Z,3.57
2018-08-31T11:23:56.758Z,4.43
2018-08-31T11:26:00.622Z,4.17
2018-08-31T11:28:04.559Z,3.37
2018-08-31T11:30:09.909Z,4.27
2018-08-31T11:32:13.821Z,4.10
2018-08-31T11:34:17.697Z,3.80
2018-08-31T11:36:21.611Z,3.87
2018-08-31T11:38:25.363Z,3.50
2018-08-31T11:40:29.223Z,4.03
2018-08-31T11:42:33.021Z,3.70
2018-08-31T11:44:37.006Z,4.07
2018-08-31T11:46:40.844Z,4.20
2018-08-31T11:48:44.646Z,4.50
2018-08-31T11:50:48.413Z,3.77
2018-08-31T11:52:52.340Z,4.13
2018-08-31T11:54:56.114Z,3.87
2018-08-31T11:56:59.901Z,3.90
2018-08-31T11:59:03.680Z,3.80
2018-08-31T12:01:08.205Z,4.27
2018-08-31T12:03:11.942Z,4.00
2018-08-31T12:05:15.787Z,4.17
2018-08-31T12:07:19.640Z,3.90
2018-08-31T12:09:23.726Z,4.50
2018-08-31T12:11:27.563Z,4.50
2018-08-31T12:13:31.442Z,4.67
2018-08-31T12:15:35.216Z,3.50
2018-08-31T12:17:39.117Z,5.03
2018-08-31T12:19:42.883Z,4.60
2018-08-31T12:21:46.687Z,3.67
2018-08-31T12:23:50.522Z,3.77
2018-08-31T12:25:54.791Z,3.53
2018-08-31T12:28:00.458Z,3.57
2018-08-31T12:30:05.389Z,4.10
2018-08-31T12:32:10.061Z,4.20
2018-08-31T12:34:14.286Z,4.53
2018-08-31T12:36:18.353Z,4.53
2018-08-31T12:38:22.712Z,4.20
2018-08-31T12:40:26.747Z,4.80
2018-08-31T12:42:30.634Z,5.93
2018-08-31T12:44:34.489Z,4.43
2018-08-31T12:46:38.328Z,3.93
2018-08-31T12:48:43.133Z,3.80
2018-08-31T12:50:47.616Z,3.70
2018-08-31T12:52:52.752Z,4.50
2018-08-31T12:54:56.558Z,3.90
2018-08-31T12:57:00.426Z,4.33
2018-08-31T12:59:04.620Z,4.03
2018-08-31T13:01:08.417Z,4.00
2018-08-31T13:03:12.695Z,4.13
2018-08-31T13:05:17.021Z,4.00
2018-08-31T13:07:25.744Z,4.23
2018-08-31T13:09:32.600Z,5.13
2018-08-31T13:11:39.034Z,3.87
2018-08-31T13:13:43.228Z,3.50
2018-08-31T13:15:47.034Z,3.63
2018-08-31T13:17:51.000Z,4.90
2018-08-31T13:19:55.690Z,3.50
2018-08-31T13:21:59.480Z,3.63
2018-08-31T13:24:03.303Z,3.70
2018-08-31T13:26:26.756Z,4.20
2018-08-31T13:28:32.622Z,3.30
2018-08-31T13:30:38.818Z,3.80
2018-08-31T13:32:42.726Z,4.57
2018-08-31T13:34:46.704Z,4.47
2018-08-31T13:36:50.525Z,4.47
2018-08-31T13:38:54.333Z,3.90
2018-08-31T13:40:58.233Z,4.43
2018-08-31T13:43:02.046Z,3.73
2018-08-31T13:45:05.893Z,3.80
2018-08-31T13:47:09.834Z,4.13
2018-08-31T13:49:13.693Z,3.97
2018-08-31T13:51:17.470Z,4.77
2018-08-31T13:53:21.834Z,3.53
2018-08-31T13:55:25.749Z,3.27
2018-08-31T13:57:29.564Z,3.67
2018-08-31T13:59:33.540Z,3.80
2018-08-31T14:01:37.328Z,3.80
2018-08-31T14:03:41.201Z,3.40
2018-08-31T14:05:44.988Z,3.80
2018-08-31T14:07:48.841Z,4.50
2018-08-31T14:09:52.608Z,3.37
2018-08-31T14:11:56.508Z,4.70
2018-08-31T14:14:00.234Z,4.33
2018-08-31T14:16:04.185Z,3.93
2018-08-31T14:18:08.012Z,3.97
2018-08-31T14:20:11.800Z,4.00
2018-08-31T14:22:15.700Z,4.60
2018-08-31T14:24:19.472Z,3.40
2018-08-31T14:26:23.294Z,3.70
2018-08-31T14:28:27.139Z,3.77
2018-08-31T14:30:30.903Z,4.33
2018-08-31T14:32:34.777Z,3.83
2018-08-31T14:34:38.614Z,3.83
2018-08-31T14:36:42.565Z,4.30
2018-08-31T14:38:46.390Z,4.47
2018-08-31T14:40:50.162Z,4.70
2018-08-31T14:42:54.440Z,3.30
2018-08-31T14:44:58.199Z,4.50
2018-08-31T14:47:02.102Z,3.83
2018-08-31T14:49:06.471Z,3.63
2018-08-31T14:51:10.300Z,4.10
2018-08-31T14:53:14.217Z,3.47
2018-08-31T14:55:18.187Z,3.37
2018-08-31T14:57:21.965Z,4.10
2018-08-31T14:59:25.787Z,4.23
2018-08-31T15:01:29.568Z,4.03
2018-08-31T15:03:33.419Z,4.67
2018-08-31T15:05:37.563Z,4.30
2018-08-31T15:07:41.433Z,4.50
2018-08-31T15:09:45.194Z,3.70
2018-08-31T15:11:49.075Z,3.80
2018-08-31T15:13:52.941Z,3.97
2018-08-31T15:15:56.905Z,3.37
2018-08-31T15:18:00.723Z,3.23
2018-08-31T15:20:04.634Z,3.50
2018-08-31T15:22:08.437Z,3.97
2018-08-31T15:24:12.321Z,3.30
2018-08-31T15:26:16.086Z,3.23
2018-08-31T15:28:19.972Z,3.70
2018-08-31T15:30:23.905Z,3.77
2018-08-31T15:32:27.749Z,3.30
2018-08-31T15:34:31.542Z,3.87
2018-08-31T15:36:35.327Z,3.77
2018-08-31T15:38:39.105Z,3.20
2018-08-31T15:40:42.933Z,3.47
2018-08-31T15:42:46.715Z,4.00
2018-08-31T15:44:50.494Z,2.83
2018-08-31T15:46:54.282Z,4.30
2018-08-31T15:48:58.112Z,3.47
2018-08-31T15:51:02.017Z,3.53
2018-08-31T15:53:06.152Z,4.00
2018-08-31T15:55:09.962Z,3.30
2018-08-31T15:57:13.704Z,2.50
2018-08-31T15:59:20.291Z,2.87
2018-08-31T16:01:24.070Z,3.67
2018-08-31T16:03:29.411Z,3.30
2018-08-31T16:05:33.221Z,3.10
2018-08-31T16:07:37.610Z,3.10
2018-08-31T16:09:41.435Z,4.07
2018-08-31T16:11:45.378Z,3.00
2018-08-31T16:13:49.304Z,3.90
2018-08-31T16:15:53.315Z,3.20
2018-08-31T16:17:57.270Z,3.07
2018-08-31T16:20:01.178Z,2.90
2018-08-31T16:22:04.990Z,3.07
2018-08-31T16:24:08.823Z,3.30
2018-08-31T16:26:12.624Z,4.00
2018-08-31T16:28:16.450Z,4.37
2018-08-31T16:30:20.921Z,3.40
2018-08-31T16:32:24.713Z,3.17
2018-08-31T16:34:28.699Z,3.47
2018-08-31T16:36:32.768Z,2.83
2018-08-31T16:38:36.632Z,3.60
2018-08-31T16:40:40.795Z,3.73
2018-08-31T16:42:45.177Z,5.17
2018-08-31T16:44:51.717Z,18.40
2018-08-31T16:46:56.908Z,11.87
2018-08-31T16:49:01.080Z,7.50
2018-08-31T16:51:05.069Z,8.83
2018-08-31T16:53:08.899Z,4.80
2018-08-31T16:55:15.581Z,4.10
2018-08-31T16:57:19.764Z,4.20
2018-08-31T16:59:25.051Z,3.70
2018-08-31T17:01:29.004Z,3.83
2018-08-31T17:03:33.067Z,3.20
2018-08-31T17:05:37.262Z,3.37
2018-08-31T17:07:41.395Z,3.07
2018-08-31T17:09:45.549Z,3.17
2018-08-31T17:11:50.535Z,3.10
2018-08-31T17:14:00.950Z,3.37
2018-08-31T17:16:04.932Z,2.70
2018-08-31T17:18:08.929Z,3.30
2018-08-31T17:20:13.638Z,3.40
2018-08-31T17:22:18.659Z,2.67
2018-08-31T17:24:27.463Z,3.30
2018-08-31T17:26:36.626Z,3.23
2018-08-31T17:28:45.868Z,3.20
2018-08-31T17:30:54.130Z,2.83
2018-08-31T17:33:03.226Z,3.50
2018-08-31T17:35:20.828Z,3.60
2018-08-31T17:37:35.486Z,2.93
2018-08-31T17:39:52.990Z,3.93
2018-08-31T17:41:56.863Z,3.20
2018-08-31T17:44:01.110Z,3.20
2018-08-31T17:46:06.099Z,3.10
2018-08-31T17:48:12.795Z,3.53
2018-08-31T17:50:17.716Z,3.20
2018-08-31T17:52:22.093Z,3.00
2018-08-31T17:54:26.434Z,2.87
2018-08-31T17:56:30.898Z,3.10
2018-08-31T17:59:02.277Z,3.23
2018-08-31T18:01:07.159Z,2.90
2018-08-31T18:03:24.788Z,3.37
2018-08-31T18:05:29.150Z,3.10
2018-08-31T18:07:33.161Z,3.03
2018-08-31T18:09:37.123Z,3.70
2018-08-31T18:11:41.084Z,2.87
2018-08-31T18:13:44.907Z,3.83
2018-08-31T18:15:49.322Z,3.00
2018-08-31T18:17:55.657Z,3.13
2018-08-31T18:20:00.876Z,3.30
2018-08-31T18:22:04.674Z,3.00
2018-08-31T18:24:08.704Z,2.90
2018-08-31T18:26:13.310Z,3.53
2018-08-31T18:28:17.442Z,3.27
2018-08-31T18:30:23.002Z,3.13
2018-08-31T18:32:27.901Z,3.30
2018-08-31T18:34:52.963Z,3.47
2018-08-31T18:36:58.293Z,3.50
2018-08-31T18:39:02.244Z,3.40
2018-08-31T18:41:07.065Z,3.37
2018-08-31T18:43:12.400Z,3.73
2018-08-31T18:45:17.013Z,3.73
2018-08-31T18:47:24.117Z,3.87
2018-08-31T18:49:28.932Z,4.23
2018-08-31T18:51:32.734Z,3.80
2018-08-31T18:53:38.217Z,3.70
2018-08-31T18:55:42.102Z,3.63
2018-08-31T18:57:56.017Z,3.77
2018-08-31T19:00:03.801Z,3.40
2018-08-31T19:05:11.040Z,3.50
2018-08-31T19:07:18.870Z,2.87
2018-08-31T19:09:24.153Z,3.10
2018-08-31T19:11:30.625Z,3.20
2018-08-31T19:13:35.746Z,3.30
2018-08-31T19:15:42.201Z,3.63
2018-08-31T19:17:47.964Z,2.77
2018-08-31T19:19:52.240Z,3.53
2018-08-31T19:21:56.731Z,3.40
2018-08-31T19:24:17.764Z,3.97
2018-08-31T19:26:25.455Z,3.60
2018-08-31T19:28:31.333Z,3.00
2018-08-31T19:30:37.373Z,3.30
2018-08-31T19:32:41.758Z,2.80
2018-08-31T19:34:47.999Z,3.30
2018-08-31T19:36:52.494Z,3.47
2018-08-31T19:38:56.804Z,3.10
2018-08-31T19:41:10.566Z,3.00
2018-08-31T19:43:17.923Z,3.30
2018-08-31T19:45:23.843Z,3.03
2018-08-31T19:47:47.605Z,3.60
2018-08-31T19:49:53.427Z,3.00
2018-08-31T19:51:57.314Z,3.63
2018-08-31T19:54:04.701Z,3.37
2018-08-31T19:56:08.844Z,3.00
2018-08-31T19:58:14.718Z,3.13
2018-08-31T20:00:20.135Z,3.30
2018-08-31T20:02:23.983Z,3.93
2018-08-31T20:04:37.883Z,3.10
2018-08-31T20:06:51.320Z,2.90
2018-08-31T20:08:55.317Z,3.17
2018-08-31T20:10:59.150Z,2.80
2018-08-31T20:13:02.928Z,3.23
2018-08-31T20:15:07.051Z,2.70
2018-08-31T20:17:10.844Z,3.00
2018-08-31T20:19:23.380Z,2.60
2018-08-31T20:21:29.178Z,2.90
2018-08-31T20:23:33.166Z,3.43
2018-08-31T20:25:36.951Z,2.83
2018-08-31T20:27:40.779Z,2.70
2018-08-31T20:29:44.585Z,3.13
2018-08-31T20:31:48.833Z,3.20
2018-08-31T20:33:53.100Z,2.70
2018-08-31T20:35:56.929Z,2.33
2018-08-31T20:38:00.992Z,3.00
2018-08-31T20:40:04.821Z,2.70
2018-08-31T20:42:08.885Z,2.70
2018-08-31T20:44:12.734Z,3.30
2018-08-31T20:46:16.738Z,2.90
2018-08-31T20:48:20.713Z,2.50
2018-08-31T20:50:24.726Z,3.07
2018-08-31T20:52:29.004Z,2.53
2018-08-31T20:54:33.175Z,2.30
2018-08-31T20:56:36.982Z,2.80
2018-08-31T20:58:40.988Z,3.23
2018-08-31T21:00:45.858Z,3.07
2018-08-31T21:02:49.707Z,3.70
2018-08-31T21:04:53.884Z,2.70
2018-08-31T21:06:57.859Z,4.00
2018-08-31T21:09:02.128Z,2.87
2018-08-31T21:11:05.978Z,2.80
2018-08-31T21:13:10.141Z,3.20
2018-08-31T21:15:13.936Z,3.30
2018-08-31T21:17:17.800Z,3.13
2018-08-31T21:19:21.708Z,3.43
2018-08-31T21:21:25.547Z,3.03
2018-08-31T21:23:29.386Z,3.90
2018-08-31T21:25:33.258Z,2.77
2018-08-31T21:27:37.147Z,3.70
2018-08-31T21:29:40.926Z,3.23
2018-08-31T21:31:44.829Z,3.30
2018-08-31T21:33:48.724Z,3.10
2018-08-31T21:35:52.826Z,3.03
2018-08-31T21:37:56.686Z,3.07
2018-08-31T21:40:03.899Z,3.30
2018-08-31T21:42:07.798Z,2.80
2018-08-31T21:44:12.381Z,3.20
2018-08-31T21:46:17.265Z,2.80
2018-08-31T21:48:21.187Z,2.63
2018-08-31T21:50:25.021Z,3.00
2018-08-31T21:52:28.914Z,2.73
2018-08-31T21:54:32.848Z,2.50
2018-08-31T21:56:36.724Z,2.70
2018-08-31T21:58:40.579Z,3.03
2018-08-31T22:00:44.669Z,2.70
2018-08-31T22:02:49.223Z,3.13
2018-08-31T22:04:53.238Z,3.03
2018-08-31T22:06:57.009Z,2.87
2018-08-31T22:09:00.963Z,2.93
2018-08-31T22:11:04.851Z,3.43
2018-08-31T22:13:08.795Z,2.60
2018-08-31T22:15:17.771Z,3.97
2018-08-31T22:17:21.647Z,3.33
2018-08-31T22:19:25.568Z,3.33
2018-08-31T22:21:29.434Z,4.17
2018-08-31T22:23:33.356Z,2.87
2018-08-31T22:25:37.119Z,2.90
2018-08-31T22:27:40.999Z,3.33
2018-08-31T22:29:44.860Z,3.27
2018-08-31T22:31:48.717Z,3.10
2018-08-31T22:33:52.569Z,3.27
2018-08-31T22:35:56.632Z,2.90
2018-08-31T22:38:00.469Z,3.30
2018-08-31T22:40:04.598Z,3.30
2018-08-31T22:42:08.363Z,3.47
2018-08-31T22:44:12.416Z,3.47
2018-08-31T22:46:16.237Z,3.20
2018-08-31T22:48:20.169Z,3.10
2018-08-31T22:50:24.045Z,3.17
2018-08-31T22:52:28.606Z,4.07
2018-08-31T22:54:33.349Z,3.43
2018-08-31T22:56:37.126Z,3.73
2018-08-31T22:58:41.224Z,3.40
2018-08-31T23:00:45.009Z,3.50
2018-08-31T23:02:48.794Z,3.40
2018-08-31T23:04:52.704Z,3.30
2018-08-31T23:06:56.477Z,4.00
2018-08-31T23:09:00.277Z,3.50
2018-08-31T23:11:04.019Z,3.60
2018-08-31T23:13:07.927Z,3.40
2018-08-31T23:15:11.767Z,3.57
2018-08-31T23:17:15.484Z,3.70
2018-08-31T23:19:19.265Z,3.73
2018-08-31T23:21:23.036Z,3.80
2018-08-31T23:23:33.027Z,3.97
2018-08-31T23:25:42.142Z,3.67
2018-08-31T23:27:45.871Z,3.60
2018-08-31T23:29:49.672Z,3.40
2018-08-31T23:31:53.424Z,3.10
2018-08-31T23:33:57.266Z,3.03
2018-08-31T23:36:01.041Z,2.87
2018-08-31T23:38:04.876Z,3.60
2018-08-31T23:40:08.692Z,3.73
2018-08-31T23:42:12.477Z,3.07
2018-08-31T23:44:16.289Z,3.50
2018-08-31T23:46:20.033Z,2.40
2018-08-31T23:48:24.934Z,3.30
2018-08-31T23:50:28.767Z,2.83
2018-08-31T23:52:32.521Z,3.00
2018-08-31T23:54:36.294Z,2.73
2018-08-31T23:56:40.064Z,3.67
2018-08-31T23:58:43.830Z,3.13
